Total volume
$1,163
$3,504 in 24h
Trades
96
Unique wallets
59
Liquidity
$0
Latest YES mid
43¢
Latest NO mid
57¢
End date
2026-05-06
First seen
2026-05-06
last 05-06 05:39
Cohort breakdown
who's buying — by wallet tier SMI: +5.8¢ (top1%: 11% YES on $194 vs crowd: 5% YES on $1.1K)
By volume tier
Tier Wallets YES buy NO buy Net bias
🐬 Dolphin 1 $1 +$1
🐟 Fish 3 $12 $145 $134
🦐 Shrimp 55 $41 $913 $872
By P&L percentile
Tier Wallets YES buy NO buy Net bias
🎯 Top 1% 4 $21 $173 $153
🏆 Top 5% 10 $12 $201 $189
✅ Top 10% 13 $4 $60 $56
Median 14 $53 $53
Below median 8 $6 $33 $27
⚠️ Bottom 10% 2 $7 +$7
🔻 Bottom 5% 5 $3 $42 $40
💀 Bottom 1% 3 $1 $496 $495
Wallet Side Net shares Cost basis Volume Trades Last activity
Needy-Makeup 0x1df9…462d Down +500 $487 $487 1 05-06 05:39
Monstrous-Dew 0x5b63…11a4 Down +116 $110 $110 4 05-06 05:39
Drab-Stationwagon 0x0389…e5f7 Down +111 $98 $98 3 05-06 05:39
Sorrowful-Software 0x93b1…746e Up +75 $12 $12 5 05-06 05:39
Poor-Footnote 0x482e…4894 Down +70 $59 $59 1 05-06 05:38
(anonymous) 0x75cc…3ce1 Up +51 $9 $9 2 05-06 05:39
Cluttered-Tattler 0xc2e0…129b Down +34 $28 $28 1 05-06 05:39
Impressionable-Crust 0x05a5…40ae Up +30 $4 $4 1 05-06 05:38
Impressionable-Crust 0x05a5…40ae Down +30 $28 $28 1 05-06 05:39
Fat-Sportsman 0x27eb…b0c4 Down +29 $28 $28 1 05-06 05:39
(anonymous) 0x75cc…3ce1 Down +28 $29 $42 2 05-06 05:39
Impressionable-Lid 0x7cf9…4b04 Down +22 $20 $20 3 05-06 05:39
Vain-Admin 0x8eec…09e0 Down +21 $21 $21 1 05-06 05:39
Which-Balalaika 0x1f54…edd3 Up +18 $2 $2 1 05-06 05:39
(anonymous) 0xee6e…4899 Up +17 $5 $5 1 05-06 05:35
Pink-Journey 0x18d3…b84f Down +15 $12 $12 2 05-06 05:35
Silver-Mustard 0xfd36…11b4 Down +15 $14 $14 1 05-06 05:39
Silent-Close 0x637a…a27c Down +15 $14 $14 1 05-06 05:39
(anonymous) 0xd040…294a Up +14 $2 $2 1 05-06 05:39
Palatable-Patent 0x0c7c…e4cb Up +14 $3 $3 3 05-06 05:39
Monthly-Temple 0x44f8…7e85 Up +12 $2 $2 1 05-06 05:38
Cluttered-Tattler 0xc2e0…129b Up +11 $2 $2 1 05-06 05:39
Angry-Capon 0x3d33…c72e Down +10 $9 $9 1 05-06 05:39
Elementary-Birdwatcher 0x668c…4930 Down +10 $9 $9 1 05-06 05:38
Silver-Angel 0x6cdb…8a82 Up +8 $1 $1 1 05-06 05:38
Friendly-Legislation 0xa9b7…f43c Up +7 $1 $1 1 05-06 05:39
Quarterly-Code 0xaab4…fe7a Down +7 $7 $7 1 05-06 05:39
(anonymous) 0x8176…709a Down +7 $6 $6 2 05-06 05:39
(anonymous) 0xe907…cff6 Up +7 $1 $1 1 05-06 05:39
Foolhardy-Toe 0x622b…8b76 Down +6 $6 $6 1 05-06 05:39
Colossal-Textbook-Technique 0xd9bc…ede7 Down +6 $5 $5 1 05-06 05:39
(anonymous) 0x8b23…0448 Down +6 $5 $5 1 05-06 05:39
(anonymous) 0x1477…0893 Down +5 $5 $5 1 05-06 05:39
Pleasant-Starboard 0x8024…bdc7 Up +5 $2 $2 1 05-06 05:34
Apprehensive-Clasp 0x1e82…7c1c Down +5 $4 $4 1 05-06 05:39
Crushing-Fugato 0xe386…4d91 Down +5 $5 $5 1 05-06 05:39
(anonymous) 0x1791…26fc Down +5 $3 $3 1 05-06 05:35
Medium-Gig 0x7a18…d2ff Down +5 $5 $5 1 05-06 05:39
Creative-Whack 0xeae7…84d5 Down +5 $4 $4 1 05-06 05:39
Chilly-Alliance 0xf2f2…726b Down +5 $3 $3 2 05-06 05:39
(anonymous) 0xa621…6e29 Down +5 $4 $4 2 05-06 05:39
staystilldontmove 0x98c4…5b19 Down +4 $4 $4 4 05-06 05:39
Rusty-Pricing 0x9b8c…5cb4 Up +4 $2 $2 1 05-06 05:34
Jovial-Hanger 0x015d…bbe2 Down +3 $3 $3 1 05-06 05:39
Curly-Enthusiasm 0x4d40…398d Up +1 $2 $3 3 05-06 05:39